Time;durP1;ratioP1;P1;durP2;ratioP2;P2;SDS_P1;SDS_P2;PMS_P1;PMS_P2;Temp;Humidity;BMP_temperature;BMP_pressure;BME280_temperature;BME280_humidity;BME280_pressure;Samples;Min_cycle;Max_cycle;Signal;HPM_P1;HPM_P2
2022/01/01 00:02:13;;;;;;;;;;;16.10;99.90;;;;;;5029131;28;20443;-66
2022/01/01 00:04:40;;;;;;;;;;;16.00;99.90;;;;;;5014911;28;20004;-61
2022/01/01 00:07:06;;;;;;;;;;;;;;;;;;5032205;28;20032;-61
2022/01/01 00:09:32;;;;;;;;;;;;;;;;;;5032856;28;20632;-63
2022/01/01 00:11:57;;;;;;;;;;;16.00;99.90;;;;;;5024028;28;19965;-62
2022/01/01 00:14:23;;;;;;;;;;;15.90;99.90;;;;;;5013527;28;19921;-66
2022/01/01 00:16:49;;;;;;;;;;;15.90;99.90;;;;;;5012921;28;19925;-62
2022/01/01 00:19:15;;;;;;;;;;;;;;;;;;5012166;28;20276;-61
2022/01/01 00:21:41;;;;;;;;;;;15.70;99.90;;;;;;5017692;28;19972;-67
2022/01/01 00:24:07;;;;;;;;;;;15.80;99.90;;;;;;5028494;28;19982;-66
2022/01/01 00:26:33;;;;;;;;;;;;;;;;;;5049741;28;19988;-66
2022/01/01 00:28:59;;;;;;;;;;;;;;;;;;5005618;28;19927;-65
2022/01/01 00:31:25;;;;;;;;;;;;;;;;;;5022649;28;19925;-66
2022/01/01 00:33:51;;;;;;;;;;;15.80;99.90;;;;;;4995408;28;20399;-66
2022/01/01 00:36:17;;;;;;;;;;;;;;;;;;5024487;28;19960;-65
2022/01/01 00:38:43;;;;;;;;;;;;;;;;;;5012172;28;19921;-66
2022/01/01 00:41:08;;;;;;;;;;;15.80;99.90;;;;;;5011734;28;19921;-66
2022/01/01 00:43:34;;;;;;;;;;;;;;;;;;5017968;28;19928;-66
2022/01/01 00:46:00;;;;;;;;;;;15.90;99.90;;;;;;5026525;28;19925;-66
2022/01/01 00:48:25;;;;;;;;;;;15.80;99.90;;;;;;5031863;28;20484;-66
2022/01/01 00:50:51;;;;;;;;;;;15.80;99.90;;;;;;4997235;28;19978;-61
2022/01/01 00:53:17;;;;;;;;;;;;;;;;;;4986520;28;19925;-62
2022/01/01 00:55:43;;;;;;;;;;;16.10;99.90;;;;;;5022368;28;19925;-66
2022/01/01 00:58:09;;;;;;;;;;;15.90;99.90;;;;;;5031601;28;19947;-65
2022/01/01 01:00:35;;;;;;;;;;;;;;;;;;5031931;28;19928;-65
2022/01/01 01:03:00;;;;;;;;;;;15.80;99.90;;;;;;5000680;28;19932;-65
2022/01/01 01:05:26;;;;;;;;;;;16.00;99.90;;;;;;4993809;28;19966;-65
2022/01/01 01:07:52;;;;;;;;;;;;;;;;;;5028163;28;19928;-66
2022/01/01 01:10:18;;;;;;;;;;;15.90;99.90;;;;;;5013668;28;19917;-66
2022/01/01 01:12:47;;;;;;;;;;;;;;;;;;5013548;28;19935;-65
2022/01/01 01:15:17;;;;;;;;;;;15.80;99.90;;;;;;5016449;28;19968;-66
2022/01/01 01:17:43;;;;;;;;;;;;;;;;;;5022512;28;19928;-66
2022/01/01 01:20:09;;;;;;;;;;;15.80;99.90;;;;;;5022162;28;19935;-64
2022/01/01 01:22:35;;;;;;;;;;;15.70;99.90;;;;;;5001468;28;19925;-67
2022/01/01 01:25:01;;;;;;;;;;;15.80;99.90;;;;;;4993258;28;20053;-67
2022/01/01 01:27:28;;;;;;;;;;;;;;;;;;5029268;28;19948;-67
2022/01/01 01:29:56;;;;;;;;;;;15.90;99.90;;;;;;5045480;28;20255;-61
2022/01/01 01:32:22;;;;;;;;;;;;;;;;;;5027907;28;19920;-63
2022/01/01 01:34:47;;;;;;;;;;;15.60;99.90;;;;;;5038443;28;20378;-61
2022/01/01 01:37:13;;;;;;;;;;;15.80;99.90;;;;;;5014334;28;19928;-61
2022/01/01 01:39:38;;;;;;;;;;;15.80;99.90;;;;;;5013813;28;19928;-62
2022/01/01 01:42:04;;;;;;;;;;;15.80;99.90;;;;;;5019769;28;19921;-61
2022/01/01 01:44:35;;;;;;;;;;;15.90;99.90;;;;;;5044792;28;20278;-66
2022/01/01 01:47:02;;;;;;;;;;;15.60;99.90;;;;;;5024215;28;19928;-61
2022/01/01 01:49:29;;;;;;;;;;;15.70;99.90;;;;;;5032351;28;19925;-60
2022/01/01 01:51:54;;;;;;;;;;;15.80;99.90;;;;;;5011731;28;19917;-67
2022/01/01 01:54:20;;;;;;;;;;;15.80;99.90;;;;;;4997062;28;19929;-66
2022/01/01 01:56:46;;;;;;;;;;;15.70;99.90;;;;;;5000385;28;19956;-61
2022/01/01 01:59:12;;;;;;;;;;;15.90;99.90;;;;;;4983821;28;19921;-61
2022/01/01 02:01:38;;;;;;;;;;;15.80;99.90;;;;;;5001730;28;19922;-61
2022/01/01 02:04:03;;;;;;;;;;;15.70;99.90;;;;;;5037547;28;19921;-61
2022/01/01 02:06:29;;;;;;;;;;;16.00;99.90;;;;;;5001632;28;19921;-61
2022/01/01 02:08:54;;;;;;;;;;;15.80;99.90;;;;;;5019416;28;20470;-61
2022/01/01 02:11:21;;;;;;;;;;;15.90;99.90;;;;;;5035888;28;19921;-61
2022/01/01 02:14:02;;;;;;;;;;;15.70;99.90;;;;;;5037559;28;19925;-61
2022/01/01 02:16:35;;;;;;;;;;;15.70;99.90;;;;;;5037998;28;19924;-61
2022/01/01 02:19:01;;;;;;;;;;;15.90;99.90;;;;;;5037271;28;20267;-61
2022/01/01 02:21:26;;;;;;;;;;;15.90;99.90;;;;;;5038741;28;19931;-67
2022/01/01 02:23:57;;;;;;;;;;;15.80;99.90;;;;;;5038347;28;20454;-67
2022/01/01 02:26:27;;;;;;;;;;;15.60;99.90;;;;;;5017799;28;19974;-60
2022/01/01 02:28:53;;;;;;;;;;;15.60;99.90;;;;;;4999809;28;20004;-67
2022/01/01 02:31:19;;;;;;;;;;;15.70;99.90;;;;;;5016898;28;20437;-67
2022/01/01 02:33:44;;;;;;;;;;;15.50;99.90;;;;;;5018444;28;20004;-67
2022/01/01 02:36:10;;;;;;;;;;;15.70;99.90;;;;;;5016822;28;19921;-61
2022/01/01 02:38:36;;;;;;;;;;;;;;;;;;5006213;28;19924;-67
2022/01/01 02:41:01;;;;;;;;;;;15.60;99.90;;;;;;5027032;28;19921;-67
2022/01/01 02:43:27;;;;;;;;;;;15.50;99.90;;;;;;5034196;28;19932;-67
2022/01/01 02:45:53;;;;;;;;;;;15.90;99.90;;;;;;5022675;28;19921;-67
2022/01/01 02:48:18;;;;;;;;;;;15.70;99.90;;;;;;5003662;28;19921;-66
2022/01/01 02:50:44;;;;;;;;;;;15.70;99.90;;;;;;4992836;28;20007;-61
2022/01/01 02:53:10;;;;;;;;;;;15.90;99.90;;;;;;5032327;28;20000;-67
2022/01/01 02:55:36;;;;;;;;;;;16.00;99.90;;;;;;5034053;28;19921;-62
2022/01/01 02:58:02;;;;;;;;;;;15.90;99.90;;;;;;5030495;28;19923;-61
2022/01/01 03:00:27;;;;;;;;;;;15.70;99.90;;;;;;5028540;28;19925;-61
2022/01/01 03:02:53;;;;;;;;;;;15.90;99.90;;;;;;5016995;28;20088;-60
2022/01/01 03:05:19;;;;;;;;;;;15.50;99.90;;;;;;5021817;28;20000;-61
2022/01/01 03:07:44;;;;;;;;;;;15.70;99.90;;;;;;5000740;28;20007;-61
2022/01/01 03:10:10;;;;;;;;;;;15.60;99.90;;;;;;5017681;28;19921;-61
2022/01/01 03:12:36;;;;;;;;;;;;;;;;;;5027170;28;19929;-61
2022/01/01 03:15:02;;;;;;;;;;;15.60;99.90;;;;;;5016063;28;19922;-62
2022/01/01 03:17:27;;;;;;;;;;;15.50;99.90;;;;;;5010583;28;20059;-61
2022/01/01 03:19:53;;;;;;;;;;;15.70;99.90;;;;;;5036129;28;20282;-61
2022/01/01 03:22:18;;;;;;;;;;;15.50;99.90;;;;;;5036107;28;19940;-66
2022/01/01 03:24:44;;;;;;;;;;;15.40;99.90;;;;;;5035747;28;20386;-67
2022/01/01 03:27:10;;;;;;;;;;;15.70;99.90;;;;;;5034168;28;19921;-62
2022/01/01 03:29:35;;;;;;;;;;;15.50;99.90;;;;;;5049384;28;20350;-67
2022/01/01 03:32:01;;;;;;;;;;;15.70;99.90;;;;;;5055824;28;19920;-67
2022/01/01 03:34:27;;;;;;;;;;;15.70;99.90;;;;;;5051634;28;19928;-62
2022/01/01 03:36:52;;;;;;;;;;;15.70;99.90;;;;;;4999048;28;19928;-61
2022/01/01 03:39:18;;;;;;;;;;;15.60;99.90;;;;;;5017197;28;19922;-61
2022/01/01 03:41:43;;;;;;;;;;;15.90;99.90;;;;;;5015756;28;19921;-61
2022/01/01 03:44:09;;;;;;;;;;;15.50;99.90;;;;;;5015867;28;19925;-61
2022/01/01 03:46:35;;;;;;;;;;;;;;;;;;5015389;28;20075;-61
2022/01/01 03:49:01;;;;;;;;;;;15.70;99.90;;;;;;5022431;28;19928;-64
2022/01/01 03:51:27;;;;;;;;;;;15.60;99.90;;;;;;5034679;28;19979;-62
2022/01/01 03:53:52;;;;;;;;;;;15.70;99.90;;;;;;5017602;28;19940;-61
2022/01/01 03:56:18;;;;;;;;;;;15.90;99.90;;;;;;5035402;28;20004;-60
2022/01/01 03:58:43;;;;;;;;;;;15.40;99.90;;;;;;5017731;28;19979;-61
2022/01/01 04:01:09;;;;;;;;;;;15.60;99.90;;;;;;5034381;28;19975;-61
2022/01/01 04:03:35;;;;;;;;;;;15.60;99.90;;;;;;5017698;28;19960;-61
2022/01/01 04:06:00;;;;;;;;;;;15.70;99.90;;;;;;5029514;28;20015;-60
2022/01/01 04:08:29;;;;;;;;;;;15.90;99.90;;;;;;5051460;28;19925;-62
2022/01/01 04:10:55;;;;;;;;;;;15.80;99.90;;;;;;5025457;28;20383;-61
2022/01/01 04:13:20;;;;;;;;;;;15.50;99.90;;;;;;5015012;28;19929;-61
2022/01/01 04:15:46;;;;;;;;;;;15.60;99.90;;;;;;5014870;28;19979;-61
2022/01/01 04:18:14;;;;;;;;;;;15.70;99.90;;;;;;5015573;28;19925;-61
2022/01/01 04:20:41;;;;;;;;;;;15.70;99.90;;;;;;4998967;28;20347;-61
2022/01/01 04:23:08;;;;;;;;;;;;;;;;;;5027242;28;20287;-67
2022/01/01 04:25:33;;;;;;;;;;;15.70;99.90;;;;;;5037647;28;20308;-61
2022/01/01 04:27:59;;;;;;;;;;;15.70;99.90;;;;;;5021648;28;20020;-61
2022/01/01 04:30:28;;;;;;;;;;;15.80;99.90;;;;;;5034482;28;19916;-61
2022/01/01 04:32:54;;;;;;;;;;;15.70;99.90;;;;;;5015052;28;20004;-61
2022/01/01 04:35:20;;;;;;;;;;;15.40;99.90;;;;;;5016996;28;19921;-61
2022/01/01 04:37:46;;;;;;;;;;;15.70;99.90;;;;;;5017497;28;19928;-61
2022/01/01 04:40:12;;;;;;;;;;;15.70;99.90;;;;;;5023791;28;20026;-62
2022/01/01 04:42:38;;;;;;;;;;;15.80;99.90;;;;;;5024033;28;19921;-60
2022/01/01 04:45:04;;;;;;;;;;;15.80;99.90;;;;;;5034185;28;19928;-62
2022/01/01 04:47:29;;;;;;;;;;;15.80;99.90;;;;;;5034288;28;19928;-61
2022/01/01 04:49:55;;;;;;;;;;;16.00;99.90;;;;;;5034122;28;19921;-61
2022/01/01 04:52:21;;;;;;;;;;;15.90;99.90;;;;;;5014609;28;19967;-67
2022/01/01 04:54:47;;;;;;;;;;;;;;;;;;5030274;28;19932;-65
2022/01/01 04:57:12;;;;;;;;;;;15.70;99.90;;;;;;4996284;28;19952;-61
2022/01/01 04:59:38;;;;;;;;;;;15.50;99.90;;;;;;5017550;28;20301;-61
2022/01/01 05:02:04;;;;;;;;;;;15.60;99.90;;;;;;5033259;28;19921;-61
2022/01/01 05:04:30;;;;;;;;;;;15.70;99.90;;;;;;5015039;28;19961;-61
2022/01/01 05:06:55;;;;;;;;;;;15.50;99.90;;;;;;5008351;28;20008;-61
2022/01/01 05:09:21;;;;;;;;;;;15.90;99.90;;;;;;5014420;28;19921;-61
2022/01/01 05:11:47;;;;;;;;;;;15.50;99.90;;;;;;5024053;28;19925;-61
2022/01/01 05:14:13;;;;;;;;;;;15.80;99.90;;;;;;5034653;28;19924;-62
2022/01/01 05:16:39;;;;;;;;;;;15.80;99.90;;;;;;5021538;28;20008;-62
2022/01/01 05:19:04;;;;;;;;;;;16.00;99.90;;;;;;5007810;28;19921;-61
2022/01/01 05:21:32;;;;;;;;;;;15.70;99.90;;;;;;5015763;28;19974;-60
2022/01/01 05:23:58;;;;;;;;;;;;;;;;;;5003550;28;19943;-65
2022/01/01 05:26:24;;;;;;;;;;;15.60;99.90;;;;;;5030845;28;19920;-61
2022/01/01 05:28:49;;;;;;;;;;;15.70;99.90;;;;;;5032845;28;20363;-62
2022/01/01 05:31:16;;;;;;;;;;;15.70;99.90;;;;;;5025870;28;19922;-61
2022/01/01 05:33:42;;;;;;;;;;;15.80;99.90;;;;;;5024541;28;20035;-61
2022/01/01 05:36:07;;;;;;;;;;;15.90;99.90;;;;;;5031485;28;19922;-62
2022/01/01 05:38:33;;;;;;;;;;;16.00;99.90;;;;;;5037530;28;19964;-61
2022/01/01 05:40:58;;;;;;;;;;;15.70;99.90;;;;;;5039390;28;20015;-61
2022/01/01 05:43:24;;;;;;;;;;;15.80;99.90;;;;;;5039523;28;20302;-62
2022/01/01 05:45:49;;;;;;;;;;;15.70;99.90;;;;;;5038312;28;19921;-62
2022/01/01 05:48:16;;;;;;;;;;;;;;;;;;5019127;28;20031;-61
2022/01/01 05:50:41;;;;;;;;;;;16.00;99.90;;;;;;5037926;28;19983;-61
2022/01/01 05:53:07;;;;;;;;;;;15.90;99.90;;;;;;5039538;28;19924;-61
2022/01/01 05:55:33;;;;;;;;;;;16.00;99.90;;;;;;5039910;28;20374;-61
2022/01/01 05:57:58;;;;;;;;;;;15.80;99.90;;;;;;5038497;28;19944;-61
2022/01/01 06:00:24;;;;;;;;;;;15.80;99.90;;;;;;5018682;28;20008;-61
2022/01/01 06:02:50;;;;;;;;;;;;;;;;;;5020315;28;19928;-63
2022/01/01 06:05:15;;;;;;;;;;;15.90;99.90;;;;;;5020467;28;19956;-62
2022/01/01 06:07:41;;;;;;;;;;;15.90;99.90;;;;;;5005726;28;19921;-61
2022/01/01 06:10:07;;;;;;;;;;;15.70;99.90;;;;;;5026819;28;19928;-62
2022/01/01 06:12:32;;;;;;;;;;;15.80;99.90;;;;;;5021602;28;19928;-61
2022/01/01 06:14:58;;;;;;;;;;;15.70;99.90;;;;;;5039800;28;20445;-61
2022/01/01 06:17:23;;;;;;;;;;;15.90;99.90;;;;;;5024267;28;19925;-61
2022/01/01 06:19:49;;;;;;;;;;;;;;;;;;5021062;28;19922;-62
2022/01/01 06:22:16;;;;;;;;;;;15.50;99.90;;;;;;5038029;28;19921;-67
2022/01/01 06:24:42;;;;;;;;;;;15.70;99.90;;;;;;5026015;28;20279;-67
2022/01/01 06:27:07;;;;;;;;;;;15.70;99.90;;;;;;5002363;28;19921;-61
2022/01/01 06:29:33;;;;;;;;;;;15.70;99.90;;;;;;5031079;28;19928;-61
2022/01/01 06:31:59;;;;;;;;;;;16.00;99.90;;;;;;5019886;28;20379;-61
2022/01/01 06:34:24;;;;;;;;;;;;;;;;;;5020099;28;19917;-62
2022/01/01 06:36:51;;;;;;;;;;;15.80;99.90;;;;;;5002078;28;20387;-61
2022/01/01 06:39:19;;;;;;;;;;;15.90;99.90;;;;;;5019834;28;20375;-61
2022/01/01 06:41:45;;;;;;;;;;;16.00;99.90;;;;;;5033486;28;19944;-60
2022/01/01 06:44:10;;;;;;;;;;;15.80;99.90;;;;;;5036507;28;19921;-61
2022/01/01 06:46:36;;;;;;;;;;;15.80;99.90;;;;;;5036260;28;19925;-62
2022/01/01 06:49:01;;;;;;;;;;;15.80;99.90;;;;;;5036710;28;19921;-61
2022/01/01 06:51:27;;;;;;;;;;;15.80;99.90;;;;;;5021680;28;19932;-61
2022/01/01 06:53:53;;;;;;;;;;;15.90;99.90;;;;;;5025856;28;19921;-61
2022/01/01 06:56:18;;;;;;;;;;;15.60;99.90;;;;;;5018893;28;20405;-61
2022/01/01 06:58:45;;;;;;;;;;;15.60;99.90;;;;;;5032279;28;19918;-61
2022/01/01 07:01:10;;;;;;;;;;;15.70;99.90;;;;;;5017602;28;19929;-63
2022/01/01 07:03:36;;;;;;;;;;;15.60;99.90;;;;;;5036330;28;19925;-61
2022/01/01 07:06:01;;;;;;;;;;;15.60;99.90;;;;;;5036004;28;19975;-61
2022/01/01 07:08:27;;;;;;;;;;;15.40;99.90;;;;;;5036384;28;20287;-61
2022/01/01 07:10:53;;;;;;;;;;;15.70;99.90;;;;;;5036398;28;19917;-61
2022/01/01 07:13:19;;;;;;;;;;;15.50;99.90;;;;;;5023659;28;19976;-61
2022/01/01 07:15:44;;;;;;;;;;;;;;;;;;4998971;28;19925;-62
2022/01/01 07:18:10;;;;;;;;;;;15.90;99.90;;;;;;5046985;28;19924;-62
2022/01/01 07:20:36;;;;;;;;;;;15.80;99.90;;;;;;5056054;28;19931;-62
2022/01/01 07:23:01;;;;;;;;;;;15.90;99.90;;;;;;5028148;28;19966;-66
2022/01/01 07:25:27;;;;;;;;;;;15.70;99.90;;;;;;5005780;28;19928;-66
2022/01/01 07:27:53;;;;;;;;;;;15.80;99.90;;;;;;5001254;28;19921;-65
2022/01/01 07:30:18;;;;;;;;;;;15.70;99.90;;;;;;5005161;28;19928;-66
2022/01/01 07:32:44;;;;;;;;;;;15.70;99.90;;;;;;5019995;28;19921;-66
2022/01/01 07:35:10;;;;;;;;;;;15.80;99.90;;;;;;5016208;28;19921;-66
2022/01/01 07:37:36;;;;;;;;;;;15.80;99.90;;;;;;5015668;28;20350;-66
2022/01/01 07:40:02;;;;;;;;;;;15.90;99.90;;;;;;5015975;28;19921;-65
2022/01/01 07:42:28;;;;;;;;;;;;;;;;;;5015784;28;19925;-66
2022/01/01 07:44:54;;;;;;;;;;;16.00;99.90;;;;;;5017134;28;20414;-67
2022/01/01 07:47:19;;;;;;;;;;;15.90;99.90;;;;;;5054302;28;19927;-67
2022/01/01 07:49:45;;;;;;;;;;;;;;;;;;5046977;28;19972;-66
2022/01/01 07:52:11;;;;;;;;;;;15.80;99.90;;;;;;5015635;28;19979;-66
2022/01/01 07:54:37;;;;;;;;;;;15.70;99.90;;;;;;5016280;28;19921;-65
2022/01/01 07:57:02;;;;;;;;;;;15.60;99.90;;;;;;5033978;28;20287;-65
2022/01/01 07:59:28;;;;;;;;;;;15.80;99.90;;;;;;5036151;28;19920;-66
2022/01/01 08:01:54;;;;;;;;;;;15.60;99.90;;;;;;5046322;28;19928;-66
2022/01/01 08:04:19;;;;;;;;;;;15.90;99.90;;;;;;5034983;28;19944;-66
2022/01/01 08:06:45;;;;;;;;;;;15.80;99.90;;;;;;5032037;28;20015;-66
2022/01/01 08:09:11;;;;;;;;;;;16.00;99.90;;;;;;5035180;28;20031;-66
2022/01/01 08:11:37;;;;;;;;;;;;;;;;;;5035039;28;20334;-65
2022/01/01 08:14:03;;;;;;;;;;;16.00;99.90;;;;;;5035121;28;19976;-66
2022/01/01 08:16:29;;;;;;;;;;;15.80;99.90;;;;;;5032993;28;19998;-66
2022/01/01 08:18:54;;;;;;;;;;;15.80;99.90;;;;;;5016811;28;19928;-65
2022/01/01 08:21:20;;;;;;;;;;;15.80;99.90;;;;;;5035172;28;19928;-65
2022/01/01 08:23:45;;;;;;;;;;;15.80;99.90;;;;;;5044096;28;20371;-66
2022/01/01 08:26:11;;;;;;;;;;;15.90;99.90;;;;;;5044557;28;19960;-66
2022/01/01 08:28:37;;;;;;;;;;;16.20;99.90;;;;;;5032905;28;19921;-66
2022/01/01 08:31:03;;;;;;;;;;;15.90;99.90;;;;;;5016688;28;19921;-66
2022/01/01 08:33:29;;;;;;;;;;;;;;;;;;5016228;28;20630;-66
2022/01/01 08:35:55;;;;;;;;;;;16.10;99.90;;;;;;4993283;28;19967;-67
2022/01/01 08:38:20;;;;;;;;;;;15.90;99.90;;;;;;5010837;28;19967;-66
2022/01/01 08:40:46;;;;;;;;;;;15.90;99.90;;;;;;5005864;28;19929;-66
2022/01/01 08:43:11;;;;;;;;;;;15.70;99.90;;;;;;5000642;28;19961;-68
2022/01/01 08:45:37;;;;;;;;;;;15.70;99.90;;;;;;5017465;28;20082;-67
2022/01/01 08:48:03;;;;;;;;;;;16.10;99.90;;;;;;5015455;28;19921;-67
2022/01/01 08:50:29;;;;;;;;;;;16.00;99.90;;;;;;4999986;28;19924;-67
2022/01/01 08:52:55;;;;;;;;;;;16.00;99.90;;;;;;4999805;28;19921;-67
2022/01/01 08:55:21;;;;;;;;;;;15.70;99.90;;;;;;4999955;28;20014;-67
2022/01/01 08:57:46;;;;;;;;;;;15.90;99.90;;;;;;4985752;28;19967;-66
2022/01/01 09:00:12;;;;;;;;;;;;;;;;;;5006005;28;19928;-67
2022/01/01 09:02:38;;;;;;;;;;;15.80;99.90;;;;;;5013697;28;19917;-67
2022/01/01 09:05:04;;;;;;;;;;;16.00;99.90;;;;;;5033511;28;19921;-67
2022/01/01 09:07:30;;;;;;;;;;;;;;;;;;4999918;28;19928;-67
2022/01/01 09:09:56;;;;;;;;;;;15.80;99.90;;;;;;5033867;28;20020;-67
2022/01/01 09:12:22;;;;;;;;;;;;;;;;;;4998891;28;19921;-67
2022/01/01 09:14:47;;;;;;;;;;;15.80;99.90;;;;;;5011491;28;19928;-68
2022/01/01 09:17:13;;;;;;;;;;;15.90;99.90;;;;;;5017395;28;19920;-66
2022/01/01 09:19:39;;;;;;;;;;;15.90;99.90;;;;;;5037257;28;19921;-66
2022/01/01 09:22:04;;;;;;;;;;;15.70;99.90;;;;;;5034011;28;19921;-66
2022/01/01 09:24:30;;;;;;;;;;;15.70;99.90;;;;;;5032268;28;20469;-66
2022/01/01 09:26:56;;;;;;;;;;;15.80;99.90;;;;;;5033612;28;19979;-66
2022/01/01 09:29:22;;;;;;;;;;;16.10;99.90;;;;;;5033963;28;19974;-66
2022/01/01 09:31:47;;;;;;;;;;;15.80;99.90;;;;;;5032799;28;19921;-66
2022/01/01 09:34:13;;;;;;;;;;;15.80;99.90;;;;;;5007728;28;19924;-66
2022/01/01 09:36:39;;;;;;;;;;;15.90;99.90;;;;;;5033041;28;19928;-61
2022/01/01 09:39:05;;;;;;;;;;;15.80;99.90;;;;;;5033795;28;20012;-61
2022/01/01 09:41:30;;;;;;;;;;;15.60;99.90;;;;;;5025686;28;19921;-62
2022/01/01 09:43:56;;;;;;;;;;;15.70;99.90;;;;;;5007905;28;19925;-65
2022/01/01 09:46:22;;;;;;;;;;;15.90;99.90;;;;;;5027696;28;19972;-65
2022/01/01 09:48:48;;;;;;;;;;;;;;;;;;5030788;28;19929;-66
2022/01/01 09:51:14;;;;;;;;;;;15.90;99.90;;;;;;5031291;28;19928;-66
2022/01/01 09:53:40;;;;;;;;;;;15.80;99.90;;;;;;5020394;28;19921;-67
2022/01/01 09:56:06;;;;;;;;;;;15.90;99.90;;;;;;5021648;28;19932;-67
2022/01/01 09:58:32;;;;;;;;;;;15.80;99.90;;;;;;5012397;28;19963;-66
2022/01/01 10:00:58;;;;;;;;;;;15.70;99.90;;;;;;5011815;28;19944;-66
2022/01/01 10:03:50;;;;;;;;;;;16.10;99.90;;;;;;5031545;28;19940;-61
2022/01/01 10:06:16;;;;;;;;;;;16.00;99.90;;;;;;5011797;28;19979;-61
2022/01/01 10:08:46;;;;;;;;;;;16.00;99.90;;;;;;5013355;28;19921;-61
2022/01/01 10:11:15;;;;;;;;;;;16.10;99.90;;;;;;4996232;28;19929;-62
2022/01/01 10:13:41;;;;;;;;;;;16.10;99.90;;;;;;4999906;28;20375;-66
2022/01/01 10:16:08;;;;;;;;;;;16.30;99.90;;;;;;5015101;28;20302;-66
2022/01/01 10:18:34;;;;;;;;;;;15.90;99.90;;;;;;5017434;28;19922;-66
2022/01/01 10:21:03;;;;;;;;;;;15.90;99.90;;;;;;5034861;28;20010;-66
2022/01/01 10:23:31;;;;;;;;;;;16.00;99.90;;;;;;5023799;28;19959;-66
2022/01/01 10:29:04;;;;;;;;;;;16.20;99.90;;;;;;5016970;28;19928;-67
2022/01/01 10:31:31;;;;;;;;;;;15.80;99.90;;;;;;5034021;28;19921;-66
2022/01/01 10:33:57;;;;;;;;;;;16.10;99.90;;;;;;4996293;28;20037;-65
2022/01/01 10:36:23;;;;;;;;;;;16.10;99.90;;;;;;5018440;28;19921;-65
2022/01/01 10:38:49;;;;;;;;;;;15.80;99.90;;;;;;5002418;28;19921;-66
2022/01/01 10:41:16;;;;;;;;;;;15.80;99.90;;;;;;5025712;28;19979;-65
2022/01/01 10:43:42;;;;;;;;;;;16.10;99.90;;;;;;5018294;28;19927;-65
2022/01/01 10:46:12;;;;;;;;;;;16.10;99.90;;;;;;5027332;28;19921;-65
2022/01/01 10:51:07;;;;;;;;;;;16.10;99.90;;;;;;5016694;28;19921;-65
2022/01/01 10:53:34;;;;;;;;;;;16.00;99.90;;;;;;4999074;28;20016;-65
2022/01/01 10:56:18;;;;;;;;;;;15.80;99.90;;;;;;5034472;28;19921;-66
2022/01/01 10:58:44;;;;;;;;;;;16.00;99.90;;;;;;4998930;28;19928;-65
2022/01/01 11:01:10;;;;;;;;;;;15.80;99.90;;;;;;5016437;28;20354;-65
2022/01/01 11:03:36;;;;;;;;;;;15.90;99.90;;;;;;5016720;28;19925;-62
2022/01/01 11:06:02;;;;;;;;;;;;;;;;;;5025716;28;20021;-68
2022/01/01 11:08:27;;;;;;;;;;;16.20;99.90;;;;;;5013698;28;19928;-62
2022/01/01 11:10:53;;;;;;;;;;;16.00;99.90;;;;;;5036169;28;19921;-62
2022/01/01 11:13:19;;;;;;;;;;;16.10;99.90;;;;;;5035057;28;19921;-61
2022/01/01 11:15:44;;;;;;;;;;;15.80;99.90;;;;;;5001239;28;19976;-61
2022/01/01 11:18:10;;;;;;;;;;;16.00;99.90;;;;;;5022548;28;19922;-62
2022/01/01 11:20:36;;;;;;;;;;;;;;;;;;5016647;28;19925;-61
2022/01/01 11:23:09;;;;;;;;;;;15.90;99.90;;;;;;5045136;28;19947;-66
2022/01/01 11:25:35;;;;;;;;;;;15.90;99.90;;;;;;5054361;28;20302;-67
2022/01/01 11:28:01;;;;;;;;;;;16.00;99.90;;;;;;5029852;28;19921;-66
2022/01/01 11:30:30;;;;;;;;;;;16.20;99.90;;;;;;5007826;28;19924;-66
2022/01/01 11:33:09;;;;;;;;;;;15.90;99.90;;;;;;5028216;28;19925;-66
2022/01/01 11:35:39;;;;;;;;;;;16.20;99.90;;;;;;5017897;28;19960;-66
2022/01/01 11:38:04;;;;;;;;;;;16.10;99.90;;;;;;4999383;28;20374;-66
2022/01/01 11:40:30;;;;;;;;;;;;;;;;;;5014022;28;19928;-66
2022/01/01 11:42:56;;;;;;;;;;;16.10;99.90;;;;;;4982033;28;19932;-67
2022/01/01 11:45:41;;;;;;;;;;;16.30;99.90;;;;;;4998145;28;20287;-66
2022/01/01 11:48:25;;;;;;;;;;;16.10;99.90;;;;;;4978073;28;19925;-66
2022/01/01 11:50:51;;;;;;;;;;;16.20;99.90;;;;;;5014616;28;20386;-67
2022/01/01 11:53:29;;;;;;;;;;;16.40;99.90;;;;;;5017843;28;19921;-66
2022/01/01 11:56:10;;;;;;;;;;;16.20;99.90;;;;;;5017793;28;19968;-67
2022/01/01 11:58:46;;;;;;;;;;;16.20;99.90;;;;;;5017804;28;19925;-66
2022/01/01 12:01:11;;;;;;;;;;;16.20;99.90;;;;;;5006936;28;20351;-67
2022/01/01 12:03:50;;;;;;;;;;;16.30;99.90;;;;;;5009569;28;19965;-69
2022/01/01 12:06:16;;;;;;;;;;;16.10;99.90;;;;;;5021002;28;20314;-61
2022/01/01 12:08:44;;;;;;;;;;;;;;;;;;5005446;28;19925;-65
2022/01/01 12:11:11;;;;;;;;;;;16.30;99.90;;;;;;5005353;28;20378;-66
2022/01/01 12:13:38;;;;;;;;;;;;;;;;;;4993778;28;19931;-66
2022/01/01 12:16:20;;;;;;;;;;;16.00;99.90;;;;;;5026460;28;20043;-62
2022/01/01 12:18:46;;;;;;;;;;;;;;;;;;4993053;28;19937;-63
2022/01/01 12:21:18;;;;;;;;;;;16.10;99.90;;;;;;5025594;28;19936;-60
2022/01/01 12:23:44;;;;;;;;;;;;;;;;;;5027796;28;19933;-66
2022/01/01 12:26:10;;;;;;;;;;;16.40;99.90;;;;;;5012826;28;19925;-64
2022/01/01 12:28:36;;;;;;;;;;;;;;;;;;5028431;28;19925;-63
2022/01/01 12:31:05;;;;;;;;;;;16.50;99.90;;;;;;5030046;28;19917;-63
2022/01/01 12:33:31;;;;;;;;;;;;;;;;;;5028949;28;20398;-65
2022/01/01 12:35:58;;;;;;;;;;;;;;;;;;5026453;28;20015;-67
2022/01/01 12:38:24;;;;;;;;;;;;;;;;;;5029904;28;19931;-66
2022/01/01 12:40:50;;;;;;;;;;;;;;;;;;5022974;28;20003;-64
2022/01/01 12:43:15;;;;;;;;;;;16.20;99.90;;;;;;5029501;28;20437;-64
2022/01/01 12:45:42;;;;;;;;;;;16.10;99.90;;;;;;5029088;28;20007;-62
2022/01/01 12:48:08;;;;;;;;;;;16.30;99.90;;;;;;5025328;28;20378;-62
2022/01/01 12:50:34;;;;;;;;;;;;;;;;;;5025294;28;20448;-62
2022/01/01 12:53:00;;;;;;;;;;;16.10;99.90;;;;;;5011861;28;19948;-61
2022/01/01 12:55:26;;;;;;;;;;;16.30;99.90;;;;;;5008727;28;19929;-66
2022/01/01 12:58:05;;;;;;;;;;;16.10;99.90;;;;;;5030100;28;20267;-62
2022/01/01 13:00:37;;;;;;;;;;;;;;;;;;5009572;28;19925;-66
2022/01/01 13:03:03;;;;;;;;;;;16.20;99.90;;;;;;5030946;28;20220;-64
2022/01/01 13:05:29;;;;;;;;;;;15.90;99.90;;;;;;5028971;28;19927;-66
2022/01/01 13:07:54;;;;;;;;;;;16.30;99.90;;;;;;5031107;28;19921;-66
2022/01/01 13:10:22;;;;;;;;;;;16.20;99.90;;;;;;5027313;28;19944;-66
2022/01/01 13:12:48;;;;;;;;;;;;;;;;;;5031237;28;19925;-64
2022/01/01 13:15:14;;;;;;;;;;;;;;;;;;5011872;28;19921;-65
2022/01/01 13:17:40;;;;;;;;;;;;;;;;;;5031828;28;19970;-64
2022/01/01 13:20:08;;;;;;;;;;;16.20;99.90;;;;;;5029968;28;19936;-64
2022/01/01 13:22:34;;;;;;;;;;;;;;;;;;5030775;28;19928;-65
2022/01/01 13:25:00;;;;;;;;;;;;;;;;;;5029779;28;19932;-66
2022/01/01 13:27:27;;;;;;;;;;;;;;;;;;5029727;28;20387;-65
2022/01/01 13:29:53;;;;;;;;;;;16.10;99.90;;;;;;5027367;28;19995;-65
2022/01/01 13:32:19;;;;;;;;;;;;;;;;;;5030754;28;20367;-66
2022/01/01 13:34:47;;;;;;;;;;;;;;;;;;5029001;28;19924;-66
2022/01/01 13:37:18;;;;;;;;;;;16.20;99.90;;;;;;5024505;28;19967;-63
2022/01/01 13:39:44;;;;;;;;;;;;;;;;;;5014202;28;19925;-64
2022/01/01 13:42:10;;;;;;;;;;;;;;;;;;4996176;28;20430;-63
2022/01/01 13:44:42;;;;;;;;;;;16.20;99.90;;;;;;5018030;28;19968;-66
2022/01/01 13:47:09;;;;;;;;;;;15.80;99.90;;;;;;5012648;28;19928;-61
2022/01/01 13:49:50;;;;;;;;;;;16.10;99.90;;;;;;4995425;28;19975;-63
2022/01/01 13:52:22;;;;;;;;;;;16.10;99.90;;;;;;5025406;28;20032;-63
2022/01/01 13:54:49;;;;;;;;;;;15.80;99.90;;;;;;5014600;28;19932;-64
2022/01/01 13:57:15;;;;;;;;;;;;;;;;;;4995478;28;19983;-64
2022/01/01 13:59:41;;;;;;;;;;;15.70;99.90;;;;;;5007921;28;19925;-64
2022/01/01 14:02:09;;;;;;;;;;;15.80;99.90;;;;;;4997129;28;19972;-65
2022/01/01 14:04:35;;;;;;;;;;;;;;;;;;5030253;28;19921;-66
2022/01/01 14:07:02;;;;;;;;;;;;;;;;;;5004971;28;19967;-67
2022/01/01 14:09:28;;;;;;;;;;;;;;;;;;5031858;28;19948;-66
2022/01/01 14:11:54;;;;;;;;;;;;;;;;;;5009276;28;20007;-63
2022/01/01 14:14:20;;;;;;;;;;;;;;;;;;5027835;28;19925;-68
2022/01/01 14:16:47;;;;;;;;;;;15.70;99.90;;;;;;5031938;28;19928;-63
2022/01/01 14:19:13;;;;;;;;;;;;;;;;;;5030664;28;19929;-68
2022/01/01 14:21:39;;;;;;;;;;;;;;;;;;5031033;28;19943;-62
2022/01/01 14:24:05;;;;;;;;;;;15.60;99.90;;;;;;5027723;28;20409;-68
2022/01/01 14:26:32;;;;;;;;;;;;;;;;;;5011633;28;20367;-68
2022/01/01 14:28:58;;;;;;;;;;;15.60;99.90;;;;;;5029592;28;19928;-63
2022/01/01 14:31:24;;;;;;;;;;;;;;;;;;5016964;28;19921;-62
2022/01/01 14:33:50;;;;;;;;;;;;;;;;;;5031237;28;20440;-66
2022/01/01 14:36:16;;;;;;;;;;;15.80;99.90;;;;;;5016984;28;19931;-67
2022/01/01 14:38:42;;;;;;;;;;;;;;;;;;5022590;28;19925;-64
2022/01/01 14:41:08;;;;;;;;;;;15.60;99.90;;;;;;5034399;28;20400;-65
2022/01/01 14:43:34;;;;;;;;;;;15.50;99.90;;;;;;5016868;28;19921;-68
2022/01/01 14:46:00;;;;;;;;;;;;;;;;;;5018525;28;19927;-66